Time;durP1;ratioP1;P1;durP2;ratioP2;P2;SDS_P1;SDS_P2;PMS_P1;PMS_P2;Temp;Humidity;BMP_temperature;BMP_pressure;BME280_temperature;BME280_humidity;BME280_pressure;Samples;Min_cycle;Max_cycle;Signal;HPM_P1;HPM_P2
2024/01/07 00:00:16;;;;;;;19.23;12.65;;;;;;;3.30;79.97;99880.63;5104558;28;20086;-75
2024/01/07 00:02:43;;;;;;;17.23;12.10;;;;;;;3.29;79.90;99878.06;5113413;28;20047;-76
2024/01/07 00:05:09;;;;;;;20.92;12.13;;;;;;;3.25;80.31;99883.34;5113009;28;20478;-77
2024/01/07 00:07:36;;;;;;;19.55;12.73;;;;;;;3.25;80.48;99879.88;5112833;28;20051;-76
2024/01/07 00:10:03;;;;;;;20.60;12.48;;;;;;;3.25;80.68;99893.75;5102221;28;20055;-75
2024/01/07 00:12:31;;;;;;;18.63;12.52;;;;;;;3.24;80.31;99899.84;5092468;28;20044;-76
2024/01/07 00:14:57;;;;;;;18.30;12.65;;;;;;;3.24;80.40;99897.25;5092405;28;20164;-75
2024/01/07 00:17:24;;;;;;;18.48;12.00;;;;;;;3.25;80.16;99898.06;5092491;28;20060;-75
2024/01/07 00:19:50;;;;;;;17.23;11.80;;;;;;;3.24;80.39;99902.44;5097891;28;20430;-76
2024/01/07 00:22:17;;;;;;;15.95;10.98;;;;;;;3.23;80.12;99900.75;5112103;28;20052;-75
2024/01/07 00:24:44;;;;;;;18.15;12.60;;;;;;;3.20;79.82;99900.81;5112602;28;20047;-77
2024/01/07 00:27:11;;;;;;;17.92;11.80;;;;;;;3.19;80.27;99904.31;5112577;28;20083;-76
2024/01/07 00:29:37;;;;;;;17.48;11.18;;;;;;;3.18;80.17;99907.78;5111719;28;20552;-76
2024/01/07 00:32:04;;;;;;;18.08;10.48;;;;;;;3.18;80.32;99917.34;5111427;28;20128;-76
2024/01/07 00:34:30;;;;;;;21.35;11.63;;;;;;;3.17;80.18;99920.84;5094234;28;20047;-75
2024/01/07 00:36:57;;;;;;;15.75;10.38;;;;;;;3.16;79.85;99919.97;5112584;28;20054;-76
2024/01/07 00:39:24;;;;;;;18.23;11.55;;;;;;;3.14;80.07;99921.75;5093841;28;20091;-75
2024/01/07 00:41:51;;;;;;;17.52;11.23;;;;;;;3.12;79.81;99927.00;5094732;28;20094;-75
2024/01/07 00:44:17;;;;;;;16.33;10.60;;;;;;;3.10;79.69;99922.75;5091537;28;20055;-76
2024/01/07 00:46:44;;;;;;;17.27;10.75;;;;;;;3.08;79.89;99922.78;5091514;28;20055;-76
2024/01/07 00:49:14;;;;;;;15.85;10.15;;;;;;;3.08;79.97;99927.09;5091412;28;20056;-76
2024/01/07 00:51:41;;;;;;;14.93;10.27;;;;;;;3.05;80.02;99927.16;5091195;28;20079;-76
2024/01/07 00:54:08;;;;;;;17.38;11.20;;;;;;;3.05;79.82;99932.38;5096854;22;20065;-76
2024/01/07 00:56:34;;;;;;;17.05;10.77;;;;;;;3.03;79.91;99929.81;5071261;28;20102;-76
2024/01/07 00:59:01;;;;;;;14.05;9.90;;;;;;;3.01;79.97;99923.78;5071075;28;20056;-76
2024/01/07 01:01:28;;;;;;;17.27;10.60;;;;;;;3.00;80.08;99928.13;5070211;28;20090;-76
2024/01/07 01:03:54;;;;;;;16.73;10.75;;;;;;;2.98;79.53;99931.66;5071115;28;20052;-76
2024/01/07 01:06:21;;;;;;;16.52;10.73;;;;;;;2.97;79.78;99937.75;5070804;28;20796;-76
2024/01/07 01:08:48;;;;;;;18.65;10.73;;;;;;;2.96;79.91;99943.84;5071005;28;20083;-76
2024/01/07 01:11:15;;;;;;;16.35;10.90;;;;;;;2.93;80.05;99944.78;5066528;28;20037;-76
2024/01/07 01:13:41;;;;;;;17.63;11.73;;;;;;;2.92;79.62;99942.22;5049145;28;20062;-76
2024/01/07 01:16:08;;;;;;;14.68;9.85;;;;;;;2.89;80.08;99943.13;5070744;28;20503;-73
2024/01/07 01:18:35;;;;;;;16.08;10.82;;;;;;;2.86;80.13;99944.06;5070623;28;20071;-75
2024/01/07 01:21:02;;;;;;;16.92;10.60;;;;;;;2.85;80.22;99949.28;5070420;28;20056;-76
2024/01/07 01:23:29;;;;;;;15.45;10.40;;;;;;;2.82;80.05;99951.94;5070300;28;20054;-75
2024/01/07 01:25:55;;;;;;;17.75;10.40;;;;;;;2.80;80.10;99951.16;5070533;28;20072;-76
2024/01/07 01:28:21;;;;;;;16.60;10.57;;;;;;;2.79;80.22;99952.00;5070681;28;20139;-76
2024/01/07 01:30:48;;;;;;;16.25;11.07;;;;;;;2.79;79.92;99952.00;5070453;28;20131;-74
2024/01/07 01:33:15;;;;;;;18.45;11.75;;;;;;;2.78;80.16;99961.56;5070364;28;20052;-75
2024/01/07 01:35:42;;;;;;;18.55;11.68;;;;;;;2.77;80.22;99959.00;5068412;28;20040;-74
2024/01/07 01:38:08;;;;;;;16.40;11.13;;;;;;;2.76;79.83;99960.72;5054448;28;20507;-75
2024/01/07 01:43:07;;;;;;;18.48;11.18;;;;;;;2.72;80.28;99966.88;5068585;28;20052;-76
2024/01/07 01:45:34;;;;;;;19.30;11.73;;;;;;;2.71;79.92;99976.44;5070618;28;20489;-76
2024/01/07 01:48:00;;;;;;;18.80;12.05;;;;;;;2.70;80.07;99969.50;5070322;28;20055;-77
2024/01/07 01:50:27;;;;;;;19.10;12.35;;;;;;;2.69;80.27;99973.00;5071621;28;20553;-76
2024/01/07 01:52:56;;;;;;;18.08;11.02;;;;;;;2.69;79.82;99980.81;5074684;28;20103;-76
2024/01/07 01:55:23;;;;;;;19.35;12.32;;;;;;;2.68;80.09;99980.81;5074847;28;20052;-75
2024/01/07 01:57:52;;;;;;;17.40;11.88;;;;;;;2.66;79.96;99985.22;5061583;28;20083;-75
2024/01/07 02:00:18;;;;;;;16.38;11.63;;;;;;;2.65;79.87;99991.31;5074315;28;20405;-76
2024/01/07 02:02:45;;;;;;;15.45;10.80;;;;;;;2.63;80.09;99991.34;5074757;28;20052;-76
2024/01/07 02:05:13;;;;;;;15.65;11.38;;;;;;;2.62;79.91;99997.44;5074695;28;20056;-76
2024/01/07 02:07:40;;;;;;;16.25;9.73;;;;;;;2.59;80.12;100002.69;5074028;28;20048;-76
2024/01/07 02:10:07;;;;;;;16.45;11.70;;;;;;;2.57;79.97;100005.31;5056456;28;20152;-76
2024/01/07 02:12:34;;;;;;;15.20;10.63;;;;;;;2.57;79.75;100005.31;5074104;28;20048;-76
2024/01/07 02:15:00;;;;;;;18.75;11.38;;;;;;;2.57;80.24;100014.84;5074359;28;20059;-77
2024/01/07 02:17:27;;;;;;;16.00;11.05;;;;;;;2.56;80.23;100011.41;5068505;28;20464;-75
2024/01/07 02:19:54;;;;;;;15.55;10.55;;;;;;;2.57;80.41;100010.50;5054340;28;20098;-76
2024/01/07 02:22:20;;;;;;;17.02;11.52;;;;;;;2.57;80.48;100023.50;5056376;28;20052;-75
2024/01/07 02:24:47;;;;;;;15.13;11.10;;;;;;;2.58;80.69;100021.78;5074182;28;20294;-76
2024/01/07 02:27:14;;;;;;;16.70;11.73;;;;;;;2.58;80.54;100016.56;5073833;28;20076;-76
2024/01/07 02:29:40;;;;;;;18.40;11.20;;;;;;;2.57;80.26;100027.81;5073828;28;20163;-76
2024/01/07 02:32:07;;;;;;;17.70;11.77;;;;;;;2.56;80.13;100027.00;5075664;28;20048;-75
2024/01/07 02:37:15;;;;;;;18.75;12.23;;;;;;;2.57;80.67;100033.03;4778517;22;20048;-76
2024/01/07 02:39:41;;;;;;;16.83;11.88;;;;;;;2.56;80.77;100032.19;5093123;28;20138;-77
2024/01/07 02:42:13;;;;;;;19.08;13.10;;;;;;;2.56;80.79;100027.00;5076709;28;20090;-74
2024/01/07 02:44:40;;;;;;;17.75;11.80;;;;;;;2.56;80.22;100033.91;5075953;28;20040;-77
2024/01/07 02:47:06;;;;;;;19.52;12.45;;;;;;;2.55;80.88;100038.25;5093958;28;20050;-75
2024/01/07 02:49:33;;;;;;;19.50;12.20;;;;;;;2.54;80.31;100033.09;5061238;28;20049;-76
2024/01/07 02:51:59;;;;;;;17.55;12.32;;;;;;;2.53;80.14;100040.03;5092559;28;20489;-81
2024/01/07 02:54:26;;;;;;;20.90;12.60;;;;;;;2.53;80.05;100044.38;5093635;28;20057;-76
2024/01/07 02:56:53;;;;;;;19.13;12.18;;;;;;;2.51;79.77;100040.94;5093695;28;20135;-77
2024/01/07 02:59:20;;;;;;;17.02;11.88;;;;;;;2.50;79.98;100047.88;5093100;28;20051;-76
2024/01/07 03:01:46;;;;;;;17.48;11.23;;;;;;;2.48;80.36;100041.88;5093092;28;20044;-76
2024/01/07 03:04:15;;;;;;;20.40;13.18;;;;;;;2.46;80.26;100044.50;5093414;28;20048;-76
2024/01/07 03:06:42;;;;;;;16.67;11.68;;;;;;;2.46;80.40;100044.50;5093386;28;20403;-75
2024/01/07 03:09:10;;;;;;;18.65;12.27;;;;;;;2.44;80.30;100051.44;5092613;28;20051;-76
2024/01/07 03:11:41;;;;;;;18.95;12.52;;;;;;;2.42;79.99;100055.81;5093060;28;20052;-76
2024/01/07 03:14:08;;;;;;;20.05;12.85;;;;;;;2.44;80.23;100051.44;5093281;28;20137;-76
2024/01/07 03:16:34;;;;;;;21.75;12.82;;;;;;;2.43;80.45;100057.53;5093235;28;20055;-77
2024/01/07 03:19:02;;;;;;;18.80;12.88;;;;;;;2.41;80.37;100059.31;5091706;28;20052;-76
2024/01/07 03:21:29;;;;;;;20.13;12.95;;;;;;;2.41;80.92;100063.66;5087380;28;20072;-76
2024/01/07 03:23:56;;;;;;;21.17;12.95;;;;;;;2.43;80.79;100074.88;5093361;28;20079;-76
2024/01/07 03:26:23;;;;;;;18.23;11.85;;;;;;;2.43;80.56;100074.88;5093170;28;20048;-74
2024/01/07 03:28:49;;;;;;;18.52;11.88;;;;;;;2.43;80.74;100077.47;5093049;28;20135;-76
2024/01/07 03:31:18;;;;;;;20.38;12.70;;;;;;;2.42;79.98;100067.94;5092446;28;20123;-76
2024/01/07 03:33:45;;;;;;;18.60;12.43;;;;;;;2.42;80.56;100084.41;5074671;28;20322;-76
2024/01/07 03:36:13;;;;;;;19.52;12.27;;;;;;;2.41;80.00;100087.03;5092786;28;20048;-75
2024/01/07 03:38:40;;;;;;;21.52;12.77;;;;;;;2.40;80.30;100086.19;5093243;28;20146;-76
2024/01/07 03:41:08;;;;;;;17.98;11.88;;;;;;;2.40;80.47;100091.38;5091690;28;20052;-76
2024/01/07 03:43:34;;;;;;;16.58;11.40;;;;;;;2.39;80.42;100089.66;5092534;28;20484;-77
2024/01/07 03:46:01;;;;;;;18.88;12.25;;;;;;;2.38;80.10;100087.06;5092898;28;20124;-76
2024/01/07 03:48:27;;;;;;;17.58;11.50;;;;;;;2.37;79.76;100093.16;5092539;28;20077;-76
2024/01/07 03:50:54;;;;;;;17.42;12.32;;;;;;;2.35;80.43;100090.59;5085586;28;20041;-74
2024/01/07 03:53:20;;;;;;;17.85;11.30;;;;;;;2.34;80.43;100096.69;5092789;28;20048;-77
2024/01/07 03:55:47;;;;;;;16.83;10.75;;;;;;;2.33;80.28;100105.34;5092606;28;20086;-75
2024/01/07 03:58:13;;;;;;;16.92;11.50;;;;;;;2.32;80.47;100101.91;5092849;28;20048;-76
2024/01/07 04:00:40;;;;;;;18.40;11.93;;;;;;;2.32;80.51;100098.47;5088892;28;20114;-76
2024/01/07 04:03:06;;;;;;;18.95;12.32;;;;;;;2.32;80.04;100099.28;5286132;22;20421;-74
2024/01/07 04:05:33;;;;;;;19.20;11.48;;;;;;;2.32;80.47;100108.84;5072544;28;20151;-76
2024/01/07 04:08:01;;;;;;;16.85;11.68;;;;;;;2.32;79.83;100107.09;5072088;28;20383;-76
2024/01/07 04:10:28;;;;;;;16.13;11.40;;;;;;;2.30;80.13;100110.59;5073919;28;20087;-75
2024/01/07 04:12:55;;;;;;;17.35;11.55;;;;;;;2.30;80.22;100118.38;5055509;28;20170;-76
2024/01/07 04:15:23;;;;;;;16.60;11.18;;;;;;;2.30;80.53;100129.66;5081594;22;20048;-77
2024/01/07 04:18:03;;;;;;;17.63;12.23;;;;;;;2.29;80.51;100125.34;5088370;28;20385;-75
2024/01/07 04:20:30;;;;;;;15.27;10.65;;;;;;;2.29;80.16;100130.53;5087980;28;20068;-77
2024/01/07 04:22:57;;;;;;;17.48;10.98;;;;;;;2.29;80.68;100138.34;5087680;28;20135;-77
2024/01/07 04:25:24;;;;;;;17.98;11.07;;;;;;;2.30;80.67;100137.44;5087605;28;20127;-76
2024/01/07 04:27:51;;;;;;;19.52;11.70;;;;;;;2.30;80.69;100136.56;5088066;28;20143;-77
2024/01/07 04:30:17;;;;;;;17.02;10.85;;;;;;;2.30;80.03;100142.63;5087669;28;20052;-77
2024/01/07 04:32:44;;;;;;;17.90;11.48;;;;;;;2.31;80.25;100152.13;5087927;28;20514;-77
2024/01/07 04:35:10;;;;;;;17.83;11.32;;;;;;;2.31;80.36;100148.69;5088139;28;20063;-77
2024/01/07 04:37:37;;;;;;;17.05;11.40;;;;;;;2.32;80.33;100155.59;5087392;28;20091;-76
2024/01/07 04:40:05;;;;;;;14.88;10.35;;;;;;;2.32;80.49;100146.06;5087729;28;20143;-75
2024/01/07 04:42:31;;;;;;;15.60;10.50;;;;;;;2.32;80.21;100145.22;5087823;28;20048;-77
2024/01/07 04:44:58;;;;;;;13.93;10.35;;;;;;;2.32;80.35;100150.41;5087702;28;20097;-76
2024/01/07 04:47:31;;;;;;;15.95;10.43;;;;;;;2.31;79.78;100154.75;5087586;28;20071;-77
2024/01/07 04:49:58;;;;;;;14.82;10.40;;;;;;;2.32;80.06;100160.81;5087624;28;20048;-76
2024/01/07 04:52:25;;;;;;;16.17;10.95;;;;;;;2.30;80.03;100163.41;5087540;28;20515;-76
2024/01/07 04:54:55;;;;;;;18.67;10.15;;;;;;;2.27;79.94;100167.78;5087702;28;20060;-76
2024/01/07 04:57:22;;;;;;;13.25;9.77;;;;;;;2.26;79.82;100169.56;5085715;28;20504;-77
2024/01/07 04:59:50;;;;;;;14.90;10.07;;;;;;;2.26;80.30;100166.06;5087452;28;20044;-76
2024/01/07 05:02:16;;;;;;;13.90;10.18;;;;;;;2.24;79.76;100163.50;5087587;28;20053;-76
2024/01/07 05:04:43;;;;;;;13.80;9.60;;;;;;;2.22;79.95;100171.31;5087482;28;20090;-78
2024/01/07 05:07:10;;;;;;;17.27;11.02;;;;;;;2.21;79.90;100173.97;5085882;28;20044;-76
2024/01/07 05:09:37;;;;;;;15.05;9.68;;;;;;;2.18;80.00;100172.28;5086796;28;20137;-76
2024/01/07 05:12:04;;;;;;;14.73;10.02;;;;;;;2.19;80.08;100180.91;5087095;28;20063;-75
2024/01/07 05:14:30;;;;;;;14.68;9.43;;;;;;;2.18;80.24;100180.06;5087282;28;20074;-77
2024/01/07 05:16:56;;;;;;;13.93;9.25;;;;;;;2.16;79.98;100184.41;5086753;28;20066;-75
2024/01/07 05:19:23;;;;;;;13.27;9.05;;;;;;;2.16;80.08;100187.00;5087420;28;20070;-77
2024/01/07 05:21:50;;;;;;;12.38;8.95;;;;;;;2.16;79.78;100192.19;5086752;28;20141;-77
2024/01/07 05:24:16;;;;;;;13.60;9.02;;;;;;;2.13;79.59;100186.22;5086797;28;20048;-76
2024/01/07 05:26:44;;;;;;;12.05;8.50;;;;;;;2.11;80.14;100194.03;5087061;28;20062;-76
2024/01/07 05:29:11;;;;;;;12.63;8.98;;;;;;;2.07;80.24;100193.22;5073781;28;20090;-76
2024/01/07 05:31:40;;;;;;;16.23;8.57;;;;;;;2.05;79.71;100197.56;5073266;28;20054;-77
2024/01/07 05:34:07;;;;;;;12.55;9.07;;;;;;;2.03;79.42;100212.31;5071982;28;20413;-77
2024/01/07 05:36:34;;;;;;;11.50;8.27;;;;;;;2.02;79.92;100220.13;5073172;28;20052;-76
2024/01/07 05:39:01;;;;;;;11.63;8.73;;;;;;;2.00;79.69;100225.34;5072650;28;20076;-77
2024/01/07 05:41:27;;;;;;;12.63;8.10;;;;;;;1.99;80.05;100220.16;5073165;28;20049;-75
2024/01/07 05:43:54;;;;;;;12.98;8.50;;;;;;;1.97;80.44;100222.78;5072708;28;20420;-76
2024/01/07 05:46:20;;;;;;;12.13;8.20;;;;;;;1.98;79.67;100229.66;5071896;28;20109;-76
2024/01/07 05:48:49;;;;;;;12.55;8.82;;;;;;;1.97;80.14;100232.31;5072752;28;20048;-77
2024/01/07 05:51:16;;;;;;;11.02;7.72;;;;;;;1.95;79.71;100240.13;5072211;28;20056;-77
2024/01/07 05:53:44;;;;;;;14.50;8.32;;;;;;;1.94;79.98;100240.97;5072533;28;20052;-77
2024/01/07 05:56:11;;;;;;;11.50;7.63;;;;;;;1.92;79.82;100245.34;5072753;28;20052;-77
2024/01/07 05:58:37;;;;;;;13.63;8.30;;;;;;;1.91;80.13;100256.63;5072659;28;20147;-76
2024/01/07 06:01:04;;;;;;;10.90;7.65;;;;;;;1.89;80.16;100250.56;5072534;28;20052;-77
2024/01/07 06:03:31;;;;;;;10.45;7.35;;;;;;;1.88;80.16;100254.94;5072667;28;20118;-77
2024/01/07 06:05:58;;;;;;;11.75;7.65;;;;;;;1.88;80.04;100264.44;5072681;28;20052;-76
2024/01/07 06:08:26;;;;;;;10.52;7.13;;;;;;;1.86;80.52;100266.22;5072726;28;20044;-77
2024/01/07 06:10:52;;;;;;;10.77;7.53;;;;;;;1.86;80.35;100266.22;5072160;28;20055;-78
2024/01/07 06:13:19;;;;;;;14.57;7.60;;;;;;;1.85;79.52;100270.53;5072454;28;20053;-77
2024/01/07 06:15:45;;;;;;;11.95;7.05;;;;;;;1.84;80.40;100271.41;5072679;28;20075;-76
2024/01/07 06:18:12;;;;;;;11.50;6.93;;;;;;;1.81;80.45;100277.50;5071181;28;20048;-77
2024/01/07 06:20:39;;;;;;;13.07;7.38;;;;;;;1.81;79.70;100284.44;5071823;28;20611;-77
2024/01/07 06:23:06;;;;;;;12.73;6.80;;;;;;;1.80;80.08;100288.75;5374573;22;20116;-77
2024/01/07 06:25:32;;;;;;;9.55;6.57;;;;;;;1.78;79.67;100289.66;5012738;28;20049;-77
2024/01/07 06:27:59;;;;;;;8.57;6.90;;;;;;;1.77;79.91;100293.13;5012892;28;20168;-77
2024/01/07 06:30:25;;;;;;;9.98;7.45;;;;;;;1.75;79.92;100293.13;5011174;28;20046;-77
2024/01/07 06:32:52;;;;;;;11.73;6.82;;;;;;;1.74;79.99;100300.94;5011191;28;20065;-76
2024/01/07 06:35:19;;;;;;;12.30;6.72;;;;;;;1.71;79.67;100307.03;5012812;28;20061;-76
2024/01/07 06:37:46;;;;;;;11.15;7.30;;;;;;;1.69;80.03;100316.59;5012550;28;20081;-77
2024/01/07 06:40:13;;;;;;;10.82;7.07;;;;;;;1.66;79.76;100317.47;5010137;28;20054;-77
2024/01/07 06:42:47;;;;;;;10.65;6.95;;;;;;;1.62;78.49;100326.16;5012354;28;20054;-76
2024/01/07 06:45:15;;;;;;;9.05;6.75;;;;;;;1.63;79.76;100327.00;5012091;28;20049;-77
2024/01/07 06:47:42;;;;;;;10.90;7.13;;;;;;;1.62;80.18;100327.91;5012332;28;20053;-77
2024/01/07 06:50:10;;;;;;;11.55;7.40;;;;;;;1.60;79.51;100338.28;5010600;28;20487;-77
2024/01/07 06:52:36;;;;;;;12.00;7.45;;;;;;;1.59;79.43;100340.91;5012056;28;20442;-77
2024/01/07 06:55:03;;;;;;;15.30;7.60;;;;;;;1.58;79.33;100340.06;5012208;28;20057;-77
2024/01/07 06:57:30;;;;;;;9.82;7.03;;;;;;;1.55;79.50;100347.88;5011933;28;20053;-78
2024/01/07 06:59:56;;;;;;;11.93;7.60;;;;;;;1.52;80.03;100355.66;5012138;28;20050;-77
2024/01/07 07:02:23;;;;;;;10.77;6.70;;;;;;;1.50;79.71;100363.47;5012098;28;20042;-77
2024/01/07 07:04:51;;;;;;;11.63;7.28;;;;;;;1.49;79.68;100361.75;5012077;28;20625;-76
2024/01/07 07:07:18;;;;;;;10.65;6.65;;;;;;;1.49;79.40;100373.88;5011980;28;20037;-76
2024/01/07 07:09:44;;;;;;;11.93;7.55;;;;;;;1.48;79.67;100374.72;5012185;28;20061;-77
2024/01/07 07:12:12;;;;;;;9.48;7.05;;;;;;;1.46;79.57;100377.34;5012072;28;20045;-78
2024/01/07 07:14:39;;;;;;;10.50;7.20;;;;;;;1.46;79.71;100379.09;5012111;28;20049;-77
2024/01/07 07:17:05;;;;;;;10.73;7.38;;;;;;;1.45;79.52;100391.19;5011537;28;20042;-77
2024/01/07 07:19:32;;;;;;;11.02;7.18;;;;;;;1.44;79.32;100392.06;5011716;28;20479;-78
2024/01/07 07:21:58;;;;;;;10.07;7.35;;;;;;;1.43;79.94;100398.97;5012156;28;20050;-76
2024/01/07 07:24:25;;;;;;;10.45;6.70;;;;;;;1.41;79.53;100394.69;5011925;28;20089;-77
2024/01/07 07:26:52;;;;;;;9.30;6.35;;;;;;;1.40;79.64;100403.34;5070840;22;20509;-77
2024/01/07 07:29:18;;;;;;;11.25;6.65;;;;;;;1.39;79.65;100406.81;4990459;28;20061;-77
2024/01/07 07:31:45;;;;;;;10.80;6.63;;;;;;;1.37;79.44;100412.03;4991824;28;20526;-77
2024/01/07 07:34:11;;;;;;;13.02;6.53;;;;;;;1.36;79.57;100402.53;4992107;28;20129;-77
2024/01/07 07:36:40;;;;;;;11.40;6.80;;;;;;;1.35;79.55;100416.34;4992070;28;20411;-77
2024/01/07 07:39:07;;;;;;;11.88;6.50;;;;;;;1.34;79.91;100425.00;4991440;28;20046;-77
2024/01/07 07:41:33;;;;;;;9.82;6.38;;;;;;;1.32;79.61;100434.53;4990404;28;20093;-77
2024/01/07 07:44:00;;;;;;;8.82;6.18;;;;;;;1.30;79.60;100438.88;4990511;28;20132;-77
2024/01/07 07:46:26;;;;;;;9.00;5.75;;;;;;;1.29;79.92;100447.53;4991795;28;20081;-77
2024/01/07 07:48:53;;;;;;;8.75;5.43;;;;;;;1.29;79.77;100444.94;4991436;28;20046;-77
2024/01/07 07:51:20;;;;;;;9.05;5.50;;;;;;;1.30;79.97;100454.44;4991287;28;20042;-77
2024/01/07 07:53:46;;;;;;;9.18;5.57;;;;;;;1.32;79.97;100449.22;4990468;28;20046;-75
2024/01/07 07:56:13;;;;;;;7.43;5.30;;;;;;;1.32;79.47;100455.28;4991638;28;20354;-77
2024/01/07 07:58:40;;;;;;;9.02;5.28;;;;;;;1.31;79.78;100456.19;4989739;28;20053;-77
2024/01/07 08:01:06;;;;;;;7.93;4.53;;;;;;;1.31;79.26;100453.59;4991640;28;20042;-77
2024/01/07 08:03:34;;;;;;;6.90;4.57;;;;;;;1.30;79.75;100467.41;4974214;28;20423;-76
2024/01/07 08:06:01;;;;;;;7.15;4.90;;;;;;;1.30;79.35;100467.41;4991266;28;20059;-77
2024/01/07 08:08:27;;;;;;;6.82;4.72;;;;;;;1.29;79.37;100466.56;4991129;28;20125;-76
2024/01/07 08:10:54;;;;;;;8.98;4.78;;;;;;;1.28;79.24;100482.13;4991052;28;20061;-77
2024/01/07 08:13:20;;;;;;;7.78;4.28;;;;;;;1.27;79.16;100485.59;4990239;28;20149;-77
2024/01/07 08:15:47;;;;;;;5.57;4.40;;;;;;;1.26;78.50;100483.84;4990106;28;20046;-77
2024/01/07 08:18:14;;;;;;;6.85;4.55;;;;;;;1.25;79.10;100475.22;4991192;28;20062;-77
2024/01/07 08:20:40;;;;;;;7.63;4.30;;;;;;;1.24;78.92;100485.59;4990809;28;20411;-77
2024/01/07 08:23:07;;;;;;;8.93;4.03;;;;;;;1.23;78.48;100486.50;4991276;28;20047;-77
2024/01/07 08:25:37;;;;;;;7.55;3.78;;;;;;;1.21;77.66;100491.69;4992682;28;20054;-75
2024/01/07 08:28:08;;;;;;;5.82;4.05;;;;;;;1.21;79.09;100502.06;4992960;28;20054;-74
2024/01/07 08:30:34;;;;;;;6.72;4.05;;;;;;;1.20;78.56;100508.13;4989182;28;20061;-74
2024/01/07 08:33:01;;;;;;;7.45;4.30;;;;;;;1.21;78.71;100506.38;4990947;28;20741;-74
2024/01/07 08:35:28;;;;;;;7.03;4.15;;;;;;;1.20;78.55;100515.91;4990493;28;20099;-74
2024/01/07 08:37:54;;;;;;;6.18;4.32;;;;;;;1.19;78.58;100528.88;4990880;28;20074;-74
2024/01/07 08:40:22;;;;;;;11.10;4.20;;;;;;;1.19;79.24;100518.50;4990740;28;20062;-74
2024/01/07 08:42:48;;;;;;;7.28;3.92;;;;;;;1.22;79.57;100531.44;4991064;28;20083;-74
2024/01/07 08:45:15;;;;;;;6.95;4.20;;;;;;;1.21;78.80;100530.59;4990371;28;20652;-74
2024/01/07 08:47:42;;;;;;;5.97;3.42;;;;;;;1.22;78.88;100540.09;5062275;22;20144;-75
2024/01/07 08:50:11;;;;;;;5.78;3.63;;;;;;;1.21;78.82;100533.19;5045050;28;20119;-72
2024/01/07 08:52:37;;;;;;;7.05;3.40;;;;;;;1.20;78.75;100547.03;5030184;28;20068;-75
2024/01/07 08:55:06;;;;;;;5.03;3.45;;;;;;;1.17;77.93;100553.06;5030517;28;20116;-74
2024/01/07 08:57:33;;;;;;;5.15;3.60;;;;;;;1.14;78.04;100550.50;5030444;28;20081;-75
2024/01/07 08:59:59;;;;;;;6.93;3.83;;;;;;;1.12;77.79;100560.00;5030392;28;20049;-74
2024/01/07 09:02:26;;;;;;;5.93;3.75;;;;;;;1.09;77.57;100553.97;5029926;28;20076;-75
2024/01/07 09:04:53;;;;;;;7.40;3.72;;;;;;;1.05;78.10;100560.94;5034254;28;20055;-75
2024/01/07 09:07:19;;;;;;;6.35;3.40;;;;;;;1.03;77.96;100565.25;5048686;22;20414;-75
2024/01/07 09:09:46;;;;;;;5.57;3.10;;;;;;;1.00;77.54;100558.34;5033087;28;20065;-74
2024/01/07 09:12:13;;;;;;;6.50;3.60;;;;;;;0.99;77.72;100579.97;5033344;28;20053;-76
2024/01/07 09:14:40;;;;;;;7.93;3.38;;;;;;;0.97;77.90;100570.47;5033602;28;20049;-77
2024/01/07 09:17:06;;;;;;;6.03;3.65;;;;;;;0.96;77.73;100582.56;5032501;28;20054;-74
2024/01/07 09:19:33;;;;;;;6.40;3.47;;;;;;;0.96;77.76;100594.63;5033467;28;20552;-75
2024/01/07 09:21:59;;;;;;;7.13;3.80;;;;;;;0.94;77.93;100594.66;5033072;28;20057;-74
2024/01/07 09:24:26;;;;;;;4.82;3.30;;;;;;;0.92;77.67;100598.97;5033629;28;20053;-74
2024/01/07 09:26:52;;;;;;;6.85;3.55;;;;;;;0.90;77.84;100596.41;5033335;28;20050;-75
2024/01/07 09:29:20;;;;;;;5.80;3.83;;;;;;;0.88;78.34;100608.50;5033414;28;20054;-73
2024/01/07 09:31:46;;;;;;;5.22;3.25;;;;;;;0.88;78.20;100618.88;5031551;28;20041;-76
2024/01/07 09:34:13;;;;;;;6.35;3.90;;;;;;;0.85;77.79;100618.88;5033074;28;20505;-74
2024/01/07 09:36:40;;;;;;;4.72;3.28;;;;;;;0.85;78.04;100620.59;5033547;28;20046;-74
2024/01/07 09:39:07;;;;;;;6.50;3.83;;;;;;;0.85;78.32;100618.00;5033142;28;20052;-74
2024/01/07 09:41:33;;;;;;;5.97;3.47;;;;;;;0.85;77.92;100629.25;5031583;28;20406;-75
2024/01/07 09:44:00;;;;;;;5.95;3.65;;;;;;;0.84;78.02;100616.28;5033162;28;20494;-75
2024/01/07 09:46:29;;;;;;;4.88;3.20;;;;;;;0.85;78.21;100628.38;5033208;28;20072;-74
2024/01/07 09:48:55;;;;;;;5.05;3.63;;;;;;;0.85;77.91;100634.44;5033024;28;20132;-75
2024/01/07 09:51:23;;;;;;;7.00;3.50;;;;;;;0.87;78.05;100637.03;5032886;28;20053;-75
2024/01/07 09:54:02;;;;;;;5.10;3.65;;;;;;;0.86;77.00;100632.72;5031695;28;20049;-75
2024/01/07 09:56:42;;;;;;;6.78;3.38;;;;;;;0.87;77.64;100637.91;5033019;28;20548;-75
2024/01/07 09:59:09;;;;;;;4.85;3.15;;;;;;;0.90;78.07;100637.88;5032492;28;20152;-76
2024/01/07 10:01:36;;;;;;;5.90;3.40;;;;;;;0.92;78.95;100640.47;5032364;28;20111;-75
2024/01/07 10:04:05;;;;;;;6.13;3.78;;;;;;;0.93;78.78;100641.34;5031032;28;20499;-76
2024/01/07 10:06:33;;;;;;;5.93;3.40;;;;;;;0.95;79.19;100642.19;5031307;28;20057;-76
2024/01/07 10:09:00;;;;;;;5.15;3.42;;;;;;;0.97;78.89;100643.06;5032086;28;20054;-76
2024/01/07 10:11:28;;;;;;;7.15;3.88;;;;;;;1.00;78.60;100641.31;5030855;28;20063;-76
2024/01/07 10:13:54;;;;;;;6.88;3.72;;;;;;;1.03;78.82;100648.22;5030651;28;20116;-74
2024/01/07 10:16:21;;;;;;;5.53;3.50;;;;;;;1.06;78.91;100643.03;5031985;28;20494;-73
2024/01/07 10:18:48;;;;;;;6.63;3.55;;;;;;;1.10;79.13;100642.16;5032224;28;20123;-76
2024/01/07 10:21:16;;;;;;;6.07;3.63;;;;;;;1.15;79.00;100647.28;5031902;28;20057;-74
2024/01/07 10:23:42;;;;;;;6.68;3.38;;;;;;;1.17;78.33;100642.97;5032107;28;20088;-74
2024/01/07 10:26:09;;;;;;;6.75;3.72;;;;;;;1.19;78.18;100643.81;5032114;28;20100;-73
2024/01/07 10:28:49;;;;;;;7.30;3.83;;;;;;;1.22;78.89;100650.72;5031981;28;20127;-75
2024/01/07 10:31:16;;;;;;;5.90;3.33;;;;;;;1.24;79.43;100652.44;5031347;28;20045;-74
2024/01/07 10:33:44;;;;;;;7.60;4.05;;;;;;;1.27;78.95;100659.38;5030621;28;20053;-75
2024/01/07 10:36:11;;;;;;;4.80;3.50;;;;;;;1.30;79.46;100660.22;5030679;28;20061;-75
2024/01/07 10:38:40;;;;;;;6.20;3.65;;;;;;;1.35;79.88;100659.34;5030516;28;20099;-72
2024/01/07 10:41:11;;;;;;;4.95;3.22;;;;;;;1.39;79.72;100658.47;5031586;28;20068;-73
2024/01/07 10:43:39;;;;;;;4.32;3.50;;;;;;;1.46;79.89;100656.69;5031669;28;20041;-73
2024/01/07 10:46:08;;;;;;;6.70;3.85;;;;;;;1.54;80.16;100671.34;5030467;28;20041;-75
2024/01/07 10:48:38;;;;;;;5.57;3.63;;;;;;;1.62;79.58;100667.84;5031726;28;20054;-73
2024/01/07 10:51:05;;;;;;;9.60;3.80;;;;;;;1.69;79.31;100664.38;5029874;28;20077;-74
2024/01/07 10:53:34;;;;;;;6.05;3.90;;;;;;;1.75;78.94;100664.31;5030620;28;20164;-74
2024/01/07 10:56:05;;;;;;;7.68;3.88;;;;;;;1.80;78.15;100657.38;5029382;28;20064;-74
2024/01/07 10:58:37;;;;;;;6.85;3.03;;;;;;;1.83;77.85;100666.88;5031726;28;20453;-73
2024/01/07 11:01:04;;;;;;;6.80;3.78;;;;;;;1.87;78.33;100670.31;5031485;28;20084;-73
2024/01/07 11:03:52;;;;;;;4.35;3.33;;;;;;;1.86;75.98;100671.22;5031043;28;20045;-73
2024/01/07 11:06:27;;;;;;;3.75;3.00;;;;;;;1.91;78.79;100654.69;5031493;28;20049;-74
2024/01/07 11:09:03;;;;;;;4.68;3.30;;;;;;;1.93;78.12;100663.34;5030085;28;20152;-74
2024/01/07 11:11:41;;;;;;;4.60;3.10;;;;;;;1.92;76.83;100664.25;5031334;28;20049;-73
2024/01/07 11:14:39;;;;;;;7.07;3.70;;;;;;;1.95;75.92;100666.78;5030863;28;20051;-75
2024/01/07 11:19:48;;;;;;;4.43;3.03;;;;;;;2.02;78.01;100666.78;5018872;28;20119;-74
2024/01/07 11:22:27;;;;;;;6.13;2.83;;;;;;;2.01;76.15;100665.03;5033190;28;20128;-75
2024/01/07 11:24:58;;;;;;;5.13;3.08;;;;;;;2.04;78.72;100672.81;5030214;28;20057;-74
2024/01/07 11:27:31;;;;;;;6.65;2.85;;;;;;;2.05;77.41;100666.72;5044932;28;20456;-76
2024/01/07 11:30:00;;;;;;;4.35;2.78;;;;;;;2.07;78.54;100671.06;5049695;28;20049;-73
2024/01/07 11:32:30;;;;;;;4.50;2.95;;;;;;;2.05;77.33;100674.50;5038981;28;20049;-74
2024/01/07 11:34:59;;;;;;;6.18;3.38;;;;;;;2.09;78.29;100668.44;5026830;28;20582;-74